Time;durP1;ratioP1;P1;durP2;ratioP2;P2;SDS_P1;SDS_P2;PMS_P1;PMS_P2;Temp;Humidity;BMP_temperature;BMP_pressure;BME280_temperature;BME280_humidity;BME280_pressure;Samples;Min_cycle;Max_cycle;Signal;HPM_P1;HPM_P2
2022/05/15 00:00:49;;;;;;;;;6.00;6.00;;;;;21.14;37.43;101224.06;5062108;28;45218;-76
2022/05/15 00:03:18;;;;;;;;;3.00;3.00;;;;;20.70;37.39;101149.34;5061961;28;45392;-78
2022/05/15 00:05:45;;;;;;;;;7.00;5.67;;;;;20.93;37.55;101184.44;5067024;28;46250;-78
2022/05/15 00:08:11;;;;;;;;;4.00;2.00;;;;;20.66;37.72;101145.75;5071849;28;45422;-77
2022/05/15 00:10:38;;;;;;;;;3.67;3.67;;;;;20.30;37.68;101054.66;5073485;28;45515;-76
2022/05/15 00:13:06;;;;;;;;;5.33;4.00;;;;;21.12;37.71;101198.75;5068181;28;45459;-75
2022/05/15 00:15:32;;;;;;;;;5.67;2.67;;;;;20.66;37.84;101121.31;5071905;28;46401;-78
2022/05/15 00:17:58;;;;;;;;;4.67;4.67;;;;;20.98;37.69;101188.00;5026289;28;1176608;-77
2022/05/15 00:20:24;;;;;;;;;4.00;4.00;;;;;20.77;38.04;101143.84;5068570;28;45548;-78
2022/05/15 00:22:49;;;;;;;;;3.67;3.67;;;;;20.69;37.84;101172.88;5063014;28;45713;-78
2022/05/15 00:25:15;;;;;;;;;3.67;3.67;;;;;20.90;37.55;101160.00;5062211;28;46517;-75
2022/05/15 00:27:40;;;;;;;;;6.67;4.67;;;;;20.98;37.79;101182.56;5064058;28;45441;-76
2022/05/15 00:30:07;;;;;;;;;4.00;4.00;;;;;20.52;37.77;101112.34;5069961;28;45509;-75
2022/05/15 00:32:32;;;;;;;;;2.00;2.00;;;;;20.91;37.97;101187.16;5068681;28;45429;-77
2022/05/15 00:34:58;;;;;;;;;3.67;3.67;;;;;20.92;37.92;101174.47;5069015;28;45529;-75
2022/05/15 00:37:24;;;;;;;;;7.67;4.33;;;;;20.22;38.03;101057.44;5069348;28;45993;-78
2022/05/15 00:39:49;;;;;;;;;6.67;6.67;;;;;20.38;37.72;101072.66;5070473;28;45162;-77
2022/05/15 00:42:15;;;;;;;;;3.33;3.33;;;;;20.86;37.90;101158.25;5068404;28;45442;-77
2022/05/15 00:44:40;;;;;;;;;4.00;3.00;;;;;20.93;37.55;101165.41;5062256;28;45687;-77
2022/05/15 00:47:06;;;;;;;;;6.33;5.00;;;;;20.42;37.76;101109.72;5062292;28;45470;-76
2022/05/15 00:49:37;;;;;;;;;4.00;3.00;;;;;21.01;37.48;101179.81;5063215;28;45444;-78
2022/05/15 00:52:06;;;;;;;;;3.00;3.00;;;;;20.96;37.89;101170.81;5073498;28;45433;-76
2022/05/15 00:54:37;;;;;;;;;4.67;4.00;;;;;20.94;38.02;101178.97;5071131;28;45518;-77
2022/05/15 00:57:10;;;;;;;;;7.33;4.67;;;;;20.47;38.19;101097.94;5068911;28;45348;-78
2022/05/15 00:59:47;;;;;;;;;6.67;4.00;;;;;19.72;37.82;100989.09;5075352;28;45635;-76
2022/05/15 01:02:14;;;;;;;;;3.00;3.00;;;;;19.71;38.08;100965.59;5068919;28;45506;-78
2022/05/15 01:04:41;;;;;;;;;3.00;2.67;;;;;20.67;38.11;101116.78;5073370;28;45315;-76
2022/05/15 01:07:06;;;;;;;;;5.00;3.33;;;;;20.57;38.04;101106.00;5063128;28;45451;-76
2022/05/15 01:09:32;;;;;;;;;5.00;4.67;;;;;20.65;38.39;101129.47;5066279;28;45624;-76
2022/05/15 01:12:01;;;;;;;;;6.67;3.67;;;;;20.58;38.83;101115.91;5068767;28;45643;-77
2022/05/15 01:14:27;;;;;;;;;4.67;4.00;;;;;20.74;39.09;101152.00;5076435;28;45567;-77
2022/05/15 01:16:53;;;;;;;;;5.33;5.00;;;;;20.04;38.83;101034.06;5071116;28;45241;-75
2022/05/15 01:19:33;;;;;;;;;3.67;3.67;;;;;20.72;38.84;101158.34;5068305;28;45489;-76
2022/05/15 01:21:59;;;;;;;;;3.00;3.00;;;;;20.33;38.77;101074.53;5068067;28;45694;-76
2022/05/15 01:24:25;;;;;;;;;3.67;3.67;;;;;20.74;38.91;101142.94;5068495;28;45480;-75
2022/05/15 01:26:51;;;;;;;;;3.67;3.67;;;;;20.76;38.72;101143.84;5067565;28;45727;-76
2022/05/15 01:29:17;;;;;;;;;4.67;4.00;;;;;20.75;39.01;101148.38;5065214;28;45344;-76
2022/05/15 01:31:43;;;;;;;;;6.33;6.33;;;;;20.25;39.20;101063.72;5060926;28;45435;-76
2022/05/15 01:34:10;;;;;;;;;4.67;3.00;;;;;20.76;39.35;101154.72;5061997;28;45424;-77
2022/05/15 01:36:36;;;;;;;;;3.33;3.33;;;;;20.72;39.23;101143.00;5072658;28;45114;-75
2022/05/15 01:39:04;;;;;;;;;5.00;3.67;;;;;20.66;39.43;101145.75;5068313;28;45482;-74
2022/05/15 01:41:30;;;;;;;;;4.00;4.00;;;;;20.55;39.48;101126.78;5067542;28;45435;-76
2022/05/15 01:43:55;;;;;;;;;3.00;3.00;;;;;20.61;39.46;101134.00;5068616;28;45745;-73
2022/05/15 01:46:23;;;;;;;;;2.33;2.33;;;;;20.51;39.41;101119.59;5065446;28;45512;-74
2022/05/15 01:48:50;;;;;;;;;2.67;2.67;;;;;20.62;39.46;101131.28;5068492;28;45150;-75
2022/05/15 01:51:16;;;;;;;;;3.00;3.00;;;;;20.24;39.26;101064.66;5064759;28;45733;-76
2022/05/15 01:53:41;;;;;;;;;4.33;3.00;;;;;20.56;39.00;101106.88;5058560;28;46071;-74
2022/05/15 01:56:07;;;;;;;;;2.00;2.00;;;;;20.56;39.22;101101.47;5061896;28;45344;-75
2022/05/15 01:58:32;;;;;;;;;8.00;5.00;;;;;20.53;39.11;101097.88;5047585;28;45179;-75
2022/05/15 02:00:58;;;;;;;;;5.33;5.00;;;;;20.48;39.38;101094.31;5067479;27;45525;-74
2022/05/15 02:03:23;;;;;;;;;7.67;6.00;;;;;20.54;39.40;101099.66;5070303;28;45520;-76
2022/05/15 02:05:49;;;;;;;;;14.25;8.50;;;;;20.52;39.20;101087.94;5065818;28;45739;-74
2022/05/15 02:08:14;;;;;;;;;7.00;4.67;;;;;20.70;39.31;101122.19;5066938;28;45131;-76
2022/05/15 02:10:39;;;;;;;;;5.33;4.00;;;;;20.69;39.38;101112.22;5067621;28;45546;-75
2022/05/15 02:13:05;;;;;;;;;7.00;6.00;;;;;20.66;39.55;101109.56;5047598;28;46220;-74
2022/05/15 02:15:30;;;;;;;;;6.00;5.00;;;;;20.36;39.84;101062.72;5067111;28;45260;-74
2022/05/15 02:17:56;;;;;;;;;6.00;4.00;;;;;20.58;39.75;101110.47;5059075;28;45335;-75
2022/05/15 02:20:22;;;;;;;;;4.33;4.00;;;;;20.40;40.20;101069.94;5063865;28;45504;-76
2022/05/15 02:22:47;;;;;;;;;4.00;4.00;;;;;20.27;40.32;101052.88;5049403;28;46605;-75
2022/05/15 02:25:14;;;;;;;;;8.67;4.67;;;;;20.53;39.94;101096.06;5067568;28;45681;-74
2022/05/15 02:27:40;;;;;;;;;5.67;5.00;;;;;20.37;40.09;101076.28;5070116;28;45294;-76
2022/05/15 02:30:08;;;;;;;;;5.00;3.33;;;;;20.40;39.72;101088.94;5067768;28;45418;-75
2022/05/15 02:32:33;;;;;;;;;6.33;5.00;;;;;20.44;40.29;101091.63;5071309;28;45599;-75
2022/05/15 02:34:58;;;;;;;;;6.50;5.25;;;;;20.26;40.45;101056.50;5072762;28;45372;-75
2022/05/15 02:37:25;;;;;;;;;6.33;4.00;;;;;20.41;40.25;101085.31;5061987;28;45187;-75
2022/05/15 02:39:50;;;;;;;;;5.00;5.00;;;;;20.39;40.34;101087.13;5063505;28;45480;-77
2022/05/15 02:42:20;;;;;;;;;4.00;4.00;;;;;19.96;40.34;101014.25;5042770;28;46439;-73
2022/05/15 02:44:46;;;;;;;;;6.67;4.67;;;;;20.31;40.21;101081.78;5067106;28;45303;-76
2022/05/15 02:47:11;;;;;;;;;5.00;3.33;;;;;20.34;40.19;101078.13;5067155;28;45192;-75
2022/05/15 02:52:20;;;;;;;;;4.67;3.00;;;;;20.38;40.05;101096.19;5067475;28;45072;-74
2022/05/15 02:54:46;;;;;;;;;5.00;4.67;;;;;20.35;40.38;101105.25;5066456;28;45259;-73
2022/05/15 02:57:11;;;;;;;;;7.67;6.33;;;;;20.23;40.13;101083.66;5067830;28;45210;-75
2022/05/15 02:59:37;;;;;;;;;5.00;5.00;;;;;20.17;40.24;101084.59;5059851;28;45341;-76
2022/05/15 03:02:03;;;;;;;;;5.67;4.00;;;;;20.30;40.43;101111.66;5059979;28;45771;-74
2022/05/15 03:04:30;;;;;;;;;9.33;5.00;;;;;19.99;40.40;101044.94;5060444;28;45437;-74
2022/05/15 03:06:56;;;;;;;;;8.00;6.33;;;;;20.02;40.34;101052.19;5066004;28;45481;-74
2022/05/15 03:09:21;;;;;;;;;7.00;5.00;;;;;20.18;40.71;101075.56;5067264;28;45154;-76
2022/05/15 03:11:47;;;;;;;;;4.33;4.33;;;;;20.16;40.46;101076.47;5067519;28;45558;-74
2022/05/15 03:14:12;;;;;;;;;4.67;4.67;;;;;20.05;40.57;101053.03;5068713;28;45195;-73
2022/05/15 03:16:37;;;;;;;;;7.00;4.00;;;;;20.28;40.71;101087.22;5068214;28;46041;-75
2022/05/15 03:19:03;;;;;;;;;5.67;4.33;;;;;19.88;40.52;101019.72;5070396;28;45405;-73
2022/05/15 03:21:28;;;;;;;;;5.00;5.00;;;;;20.27;40.81;101088.13;5065160;28;46179;-73
2022/05/15 03:23:59;;;;;;;;;4.33;4.33;;;;;19.99;40.74;101049.47;5062954;28;45460;-76
2022/05/15 03:26:26;;;;;;;;;7.67;4.00;;;;;20.00;40.86;101054.91;5063430;28;45236;-75
2022/05/15 03:28:51;;;;;;;;;5.00;3.00;;;;;19.99;40.93;101060.34;5068008;28;45189;-75
2022/05/15 03:31:17;;;;;;;;;8.33;5.33;;;;;20.14;41.22;101073.75;5075925;28;45551;-75
2022/05/15 03:33:43;;;;;;;;;6.33;6.00;;;;;20.10;41.57;101073.81;5071257;28;45126;-73
2022/05/15 03:36:11;;;;;;;;;4.00;4.00;;;;;20.05;41.41;101071.13;5069904;28;45186;-73
2022/05/15 03:38:39;;;;;;;;;4.33;4.00;;;;;20.05;41.52;101079.28;5070839;28;45225;-74
2022/05/15 03:41:04;;;;;;;;;4.00;4.00;;;;;19.94;41.49;101063.06;5070443;28;45962;-75
2022/05/15 03:43:30;;;;;;;;;5.00;5.00;;;;;19.92;41.58;101058.59;5063639;28;45465;-72
2022/05/15 03:45:55;;;;;;;;;6.75;4.75;;;;;19.95;41.72;101070.31;5062942;28;45746;-76
2022/05/15 03:48:20;;;;;;;;;14.00;12.25;;;;;19.82;41.61;101044.19;5061339;28;45512;-75
2022/05/15 03:50:46;;;;;;;;;6.00;5.00;;;;;19.86;41.70;101051.38;5066440;28;45257;-76
2022/05/15 03:53:11;;;;;;;;;5.00;5.00;;;;;19.95;41.75;101067.59;5068582;28;45529;-74
2022/05/15 03:55:37;;;;;;;;;7.00;5.00;;;;;19.90;41.73;101066.72;5071673;28;45742;-72
2022/05/15 03:58:03;;;;;;;;;7.00;5.67;;;;;19.45;41.93;100993.81;5069891;28;45441;-73
2022/05/15 04:00:28;;;;;;;;;7.25;6.50;;;;;19.84;42.17;101053.22;5071194;28;45752;-75
2022/05/15 04:02:54;;;;;;;;;6.00;5.00;;;;;19.70;42.05;101028.88;5070043;28;45435;-75
2022/05/15 04:05:20;;;;;;;;;5.33;5.00;;;;;19.60;42.15;101019.91;5067700;28;45399;-73
2022/05/15 04:07:50;;;;;;;;;6.00;6.00;;;;;19.62;42.52;101026.22;5063187;28;45828;-74
2022/05/15 04:10:18;;;;;;;;;31.25;30.50;;;;;19.52;42.35;101021.78;5062241;28;46230;-74
2022/05/15 04:12:44;;;;;;;;;8.33;7.00;;;;;19.69;42.24;101049.66;5070675;28;45486;-74
2022/05/15 04:15:10;;;;;;;;;9.50;8.50;;;;;19.47;42.50;101021.78;5069481;28;45279;-75
2022/05/15 04:17:51;;;;;;;;;9.00;6.00;;;;;19.65;42.74;101058.72;5069900;28;45159;-74
2022/05/15 04:20:21;;;;;;;;;9.67;7.00;;;;;19.64;42.53;101070.47;5065378;28;45496;-74
2022/05/15 04:22:47;;;;;;;;;6.00;5.00;;;;;19.64;42.35;101064.16;5074289;28;45323;-76
2022/05/15 04:25:13;;;;;;;;;5.33;5.33;;;;;19.62;42.50;101066.88;5067666;28;45119;-73
2022/05/15 04:27:39;;;;;;;;;8.50;6.75;;;;;19.61;42.55;101061.47;5069427;28;45022;-76
2022/05/15 04:30:06;;;;;;;;;5.33;5.33;;;;;19.48;42.67;101045.25;5052642;28;47525;-74
2022/05/15 04:32:32;;;;;;;;;7.00;6.00;;;;;19.53;42.46;101042.53;5068245;28;45284;-74
2022/05/15 04:34:57;;;;;;;;;7.33;6.00;;;;;19.62;42.52;101050.59;5061157;28;45259;-74
2022/05/15 04:37:22;;;;;;;;;6.00;6.00;;;;;19.57;42.55;101047.03;5068700;28;45416;-76
2022/05/15 04:39:48;;;;;;;;;6.00;5.00;;;;;19.62;42.52;101044.28;5068576;28;45897;-73
2022/05/15 04:42:13;;;;;;;;;5.33;5.33;;;;;19.40;42.65;101008.28;5069345;28;45271;-76
2022/05/15 04:44:39;;;;;;;;;7.00;4.67;;;;;19.58;42.64;101037.97;5067263;28;45963;-76
2022/05/15 04:47:05;;;;;;;;;7.00;6.00;;;;;19.56;42.60;101041.63;5050574;28;45176;-76
2022/05/15 04:49:30;;;;;;;;;6.33;4.00;;;;;19.45;42.68;101020.91;5068475;28;45543;-73
2022/05/15 04:51:55;;;;;;;;;4.00;4.00;;;;;19.58;42.55;101042.50;5063228;28;45445;-74
2022/05/15 04:54:21;;;;;;;;;9.67;7.33;;;;;19.57;42.65;101051.53;5062840;28;45560;-74
2022/05/15 04:56:46;;;;;;;;;4.00;4.00;;;;;19.43;42.65;101038.06;5062011;28;45606;-74
2022/05/15 04:59:11;;;;;;;;;9.67;6.33;;;;;19.46;42.76;101044.38;5067899;28;52202;-75
2022/05/15 05:01:37;;;;;;;;;8.33;6.67;;;;;19.05;42.89;100976.88;5068129;28;45354;-74
2022/05/15 05:04:02;;;;;;;;;6.75;6.00;;;;;19.52;42.94;101063.31;5069972;28;45804;-75
2022/05/15 05:06:28;;;;;;;;;8.00;5.33;;;;;18.76;42.93;100931.84;5069907;28;45415;-76
2022/05/15 05:08:54;;;;;;;;;9.33;7.67;;;;;19.50;42.66;101056.09;5069747;28;46132;-74
2022/05/15 05:11:20;;;;;;;;;7.00;6.00;;;;;19.49;42.74;101066.03;5068780;28;45538;-73
2022/05/15 05:13:46;;;;;;;;;4.33;4.33;;;;;19.56;42.74;101072.31;5067089;28;45586;-75
2022/05/15 05:16:11;;;;;;;;;8.67;6.33;;;;;19.40;42.78;101046.22;5065764;28;45365;-75
2022/05/15 05:18:37;;;;;;;;;5.33;5.33;;;;;19.29;42.76;101033.63;5057739;28;45728;-76
2022/05/15 05:21:03;;;;;;;;;7.33;5.00;;;;;19.54;42.95;101071.44;5069517;28;45621;-75
2022/05/15 05:23:28;;;;;;;;;7.00;5.67;;;;;19.26;42.81;101025.50;5065765;28;45583;-76
2022/05/15 05:25:53;;;;;;;;;7.00;7.00;;;;;19.34;42.97;101044.44;5069572;28;45512;-75
2022/05/15 05:28:19;;;;;;;;;7.33;7.00;;;;;19.54;42.82;101079.56;5050955;28;46888;-76
2022/05/15 05:30:45;;;;;;;;;9.25;6.50;;;;;19.55;43.19;101075.97;5067874;28;45313;-73
2022/05/15 05:33:11;;;;;;;;;9.25;7.75;;;;;19.38;42.95;101050.75;5048364;28;45319;-74
2022/05/15 05:35:37;;;;;;;;;7.67;6.67;;;;;19.45;43.08;101064.25;5067035;28;45052;-75
2022/05/15 05:38:02;;;;;;;;;5.33;4.00;;;;;19.41;42.83;101057.03;5062023;28;45937;-73
2022/05/15 05:40:28;;;;;;;;;7.67;4.33;;;;;19.55;43.06;101075.97;5062742;28;45415;-75
2022/05/15 05:42:53;;;;;;;;;6.67;5.00;;;;;19.48;43.15;101071.47;5060443;28;45495;-75
2022/05/15 05:45:19;;;;;;;;;5.75;5.25;;;;;19.55;42.83;101080.47;5068590;28;45131;-73
2022/05/15 05:47:47;;;;;;;;;8.75;7.00;;;;;19.57;42.96;101082.25;5070089;28;45272;-76
2022/05/15 05:50:14;;;;;;;;;6.00;6.00;;;;;19.43;42.98;101051.63;5068369;28;46369;-76
2022/05/15 05:52:40;;;;;;;;;10.33;7.00;;;;;19.51;42.73;101058.78;5067638;28;45261;-74
2022/05/15 05:55:07;;;;;;;;;7.00;6.00;;;;;19.63;42.90;101073.19;5068994;28;45294;-76
2022/05/15 05:57:33;;;;;;;;;9.00;6.00;;;;;19.62;42.81;101075.00;5068695;28;46719;-76
2022/05/15 05:59:58;;;;;;;;;6.00;6.00;;;;;19.52;42.94;101048.88;5061889;28;45738;-75
2022/05/15 06:02:25;;;;;;;;;8.33;5.67;;;;;19.47;42.73;101024.50;5060767;28;45336;-74
2022/05/15 06:04:51;;;;;;;;;6.00;6.00;;;;;19.55;42.80;101045.22;5063772;28;45286;-74
2022/05/15 06:07:26;;;;;;;;;7.67;5.00;;;;;19.67;42.97;101040.63;5069345;28;46334;-76
2022/05/15 06:09:52;;;;;;;;;8.00;8.00;;;;;19.86;42.46;101056.81;5071368;28;45052;-74
2022/05/15 06:12:21;;;;;;;;;8.00;6.00;;;;;19.91;42.46;101052.25;5073006;28;45059;-75
2022/05/15 06:14:46;;;;;;;;;7.00;5.00;;;;;19.97;42.38;101059.44;5070541;28;45021;-74
2022/05/15 06:17:12;;;;;;;;;5.00;5.00;;;;;20.02;41.94;101058.50;5067287;28;45587;-76
2022/05/15 06:19:38;;;;;;;;;5.33;5.33;;;;;20.07;41.90;101059.34;5067604;28;45207;-76
2022/05/15 06:22:04;;;;;;;;;4.33;4.33;;;;;20.14;41.82;101065.63;5059239;28;45632;-75
2022/05/15 06:24:29;;;;;;;;;4.00;4.00;;;;;19.97;41.60;101024.19;5063683;28;45246;-74
2022/05/15 06:27:02;;;;;;;;;4.33;2.67;;;;;20.22;41.56;101065.56;5061046;28;45692;-75
2022/05/15 06:29:28;;;;;;;;;4.00;4.00;;;;;20.28;41.43;101060.09;5066500;28;45286;-76
2022/05/15 06:31:53;;;;;;;;;5.33;5.33;;;;;20.23;41.18;101053.81;5067879;28;45568;-75
2022/05/15 06:34:19;;;;;;;;;9.33;6.00;;;;;19.92;41.24;100988.09;5070793;28;45350;-74
2022/05/15 06:36:44;;;;;;;;;6.00;6.00;;;;;19.92;41.28;100979.94;5066399;28;46117;-77
2022/05/15 06:39:10;;;;;;;;;5.00;4.00;;;;;20.34;41.19;101051.00;5067617;28;45330;-75
2022/05/15 06:41:37;;;;;;;;;4.00;4.00;;;;;20.25;40.75;101028.47;5068209;28;45469;-77
2022/05/15 06:44:03;;;;;;;;;6.00;4.00;;;;;20.52;40.55;101068.91;5064574;28;45360;-76
2022/05/15 06:46:29;;;;;;;;;3.67;3.67;;;;;20.29;40.35;101026.59;5059954;28;46373;-80
2022/05/15 06:48:55;;;;;;;;;6.67;5.00;;;;;20.44;40.32;101049.97;5064501;28;46176;-78
2022/05/15 06:51:20;;;;;;;;;3.33;3.33;;;;;20.44;40.19;101061.75;5073853;28;45453;-79
2022/05/15 06:53:47;;;;;;;;;4.00;4.00;;;;;20.54;40.10;101075.22;5071626;28;45452;-76
2022/05/15 06:58:58;;;;;;;;;4.33;4.33;;;;;20.49;39.38;101075.28;5074354;28;45499;-79
2022/05/15 07:01:24;;;;;;;;;4.67;3.33;;;;;20.53;38.96;101085.19;5077237;28;45177;-78
2022/05/15 07:03:49;;;;;;;;;3.00;3.00;;;;;20.48;39.10;101069.88;5075602;28;45636;-77
2022/05/15 07:06:15;;;;;;;;;3.00;3.00;;;;;20.34;39.20;101038.34;5067480;28;45800;-75
2022/05/15 07:08:41;;;;;;;;;3.00;3.00;;;;;20.44;39.53;101031.00;5071898;28;45453;-73
2022/05/15 07:11:07;;;;;;;;;3.00;3.00;;;;;20.70;39.11;101052.47;5069032;28;45259;-74
2022/05/15 07:13:32;;;;;;;;;3.00;3.00;;;;;20.23;38.94;100943.47;5067698;28;45584;-75
2022/05/15 07:15:59;;;;;;;;;3.67;2.00;;;;;20.91;38.87;101051.34;5069837;28;45091;-75
2022/05/15 07:18:25;;;;;;;;;4.67;4.00;;;;;20.61;38.72;100968.41;5069963;28;45278;-77
2022/05/15 07:20:51;;;;;;;;;3.00;3.00;;;;;21.07;38.42;101037.56;5070861;28;45347;-76
2022/05/15 07:23:18;;;;;;;;;4.67;3.67;;;;;21.20;38.17;101039.25;5069946;28;45514;-76
2022/05/15 07:25:43;;;;;;;;;3.67;3.67;;;;;20.99;38.15;100986.06;5069639;28;46080;-77
2022/05/15 07:28:09;;;;;;;;;4.33;3.00;;;;;21.43;37.82;101025.34;5070685;28;45472;-77
2022/05/15 07:30:35;;;;;;;;;3.00;3.00;;;;;21.30;37.56;100991.06;5063187;28;45313;-74
2022/05/15 07:33:00;;;;;;;;;6.00;4.00;;;;;21.46;37.61;100984.50;5064669;28;45622;-77
2022/05/15 07:35:27;;;;;;;;;4.00;3.00;;;;;21.47;37.28;100966.38;5063696;28;45442;-77
2022/05/15 07:37:53;;;;;;;;;5.00;3.00;;;;;21.77;37.38;101013.09;5070038;28;45340;-76
2022/05/15 07:40:19;;;;;;;;;4.00;3.00;;;;;21.71;36.73;100997.75;5074063;28;45170;-81
2022/05/15 07:42:44;;;;;;;;;3.67;3.67;;;;;21.87;36.89;101010.19;5069857;28;45216;-77
2022/05/15 07:45:12;;;;;;;;;4.67;3.00;;;;;21.75;37.05;100975.03;5067788;28;47397;-78
2022/05/15 07:47:40;;;;;;;;;4.00;2.00;;;;;21.96;36.38;100997.34;5070727;28;45456;-78
2022/05/15 07:50:07;;;;;;;;;4.33;3.00;;;;;22.04;36.07;101012.66;5073309;28;45100;-74
2022/05/15 07:52:32;;;;;;;;;3.00;3.00;;;;;22.05;35.91;101005.38;5062184;28;45846;-75
2022/05/15 07:54:58;;;;;;;;;4.00;2.00;;;;;21.93;35.96;100981.06;5061767;28;45661;-77
2022/05/15 07:57:23;;;;;;;;;2.00;2.00;;;;;22.07;35.93;100985.34;5066806;28;45684;-78
2022/05/15 07:59:48;;;;;;;;;6.00;3.00;;;;;22.21;35.56;100985.13;5067516;28;45328;-76
2022/05/15 08:02:14;;;;;;;;;5.33;2.67;;;;;22.31;35.11;100977.72;5070712;28;45184;-79
2022/05/15 08:10:09;;;;;;;;;6.00;4.33;;;;;22.18;35.20;100910.81;5075722;28;45303;-78
2022/05/15 08:12:35;;;;;;;;;2.00;2.00;;;;;21.21;34.91;100743.94;5072365;28;45115;-79
2022/05/15 08:15:06;;;;;;;;;4.67;3.00;;;;;22.50;34.55;100902.03;5068027;28;45409;-79
2022/05/15 08:17:31;;;;;;;;;3.33;3.33;;;;;23.00;34.68;100950.94;5064597;28;45328;-81
2022/05/15 08:25:26;;;;;;;;;5.00;5.00;;;;;22.45;33.78;100806.84;5071897;28;45111;-80
2022/05/15 08:27:51;;;;;;;;;3.67;3.67;;;;;22.67;33.51;100787.31;5070952;28;45075;-81
2022/05/15 08:30:17;;;;;;;;;5.33;4.33;;;;;22.43;33.41;100745.19;5074919;28;45446;-81
2022/05/15 08:32:43;;;;;;;;;2.67;2.33;;;;;23.84;33.06;100966.28;5074339;28;45210;-83
2022/05/15 08:35:09;;;;;;;;;4.00;3.00;;;;;23.89;32.41;100948.88;5072798;28;46344;-82
2022/05/15 08:37:35;;;;;;;;;4.67;4.67;;;;;23.94;32.40;100948.75;5079201;28;45119;-84
2022/05/15 08:40:01;;;;;;;;;1.67;1.67;;;;;22.75;32.29;100774.41;5075830;28;45232;-82
2022/05/15 08:42:49;;;;;;;;;3.00;3.00;;;;;23.81;32.26;100975.41;5075848;28;45272;-84
2022/05/15 08:45:20;;;;;;;;;3.00;3.00;;;;;23.90;32.45;100937.00;5082060;28;45242;-85
2022/05/15 08:47:48;;;;;;;;;3.00;3.00;;;;;24.05;32.31;100932.97;5076630;28;45229;-82
2022/05/15 08:50:26;;;;;;;;;4.00;3.00;;;;;24.15;31.43;100944.53;5075393;28;45270;-81
2022/05/15 08:52:57;;;;;;;;;4.00;2.00;;;;;24.24;31.57;100930.66;5077794;28;45189;-85
2022/05/15 08:55:28;;;;;;;;;4.33;4.00;;;;;24.32;31.19;100929.53;5076174;28;45913;-83
2022/05/15 08:58:00;;;;;;;;;2.33;2.33;;;;;24.40;31.14;100932.94;5080518;28;45400;-82
2022/05/15 09:00:35;;;;;;;;;3.00;3.00;;;;;23.58;31.43;100804.16;5052698;28;45263;-82
2022/05/15 09:03:21;;;;;;;;;2.33;2.33;;;;;22.82;31.33;100647.13;5069382;28;45411;-80
2022/05/15 09:06:30;;;;;;;;;2.00;2.00;;;;;24.64;30.75;100929.53;5070030;28;45465;-81
2022/05/15 09:09:14;;;;;;;;;4.00;4.00;;;;;24.78;30.85;100929.16;5004907;28;45307;-81
2022/05/15 09:11:45;;;;;;;;;2.33;2.00;;;;;24.81;30.70;100923.59;5066898;27;45198;-82
2022/05/15 09:14:27;;;;;;;;;1.67;1.33;;;;;24.03;30.31;100771.09;5073150;28;45357;-81
2022/05/15 09:16:56;;;;;;;;;4.67;4.00;;;;;25.00;30.98;100932.13;5072078;28;45593;-82
2022/05/15 09:19:22;;;;;;;;;4.00;2.33;;;;;25.05;30.68;100932.00;5065866;28;45376;-81
2022/05/15 09:21:53;;;;;;;;;2.00;2.00;;;;;25.04;30.74;100926.56;5068729;28;45441;-81
2022/05/15 09:24:45;;;;;;;;;3.00;3.00;;;;;25.08;30.59;100920.97;5069502;28;45408;-80
2022/05/15 09:27:21;;;;;;;;;4.33;4.00;;;;;24.79;30.89;100845.34;5054520;28;45282;-80
2022/05/15 09:30:09;;;;;;;;;1.67;1.67;;;;;24.84;30.11;100837.88;5078415;28;45225;-80
2022/05/15 09:32:40;;;;;;;;;5.00;3.00;;;;;25.04;29.71;100872.78;5089053;28;45259;-80
2022/05/15 09:35:38;;;;;;;;;4.00;3.00;;;;;25.34;29.80;100900.13;5090029;28;45273;-80
2022/05/15 09:43:49;;;;;;;;;2.00;2.00;;;;;25.63;28.35;100890.06;5089032;28;45218;-80
2022/05/15 09:46:18;;;;;;;;;2.00;2.00;;;;;25.68;27.93;100888.06;5082370;28;45454;-80
2022/05/15 09:49:14;;;;;;;;;3.67;3.67;;;;;25.78;28.06;100885.91;5092435;28;45502;-79
2022/05/15 09:51:47;;;;;;;;;1.67;1.67;;;;;24.65;27.39;100671.81;5092621;28;45242;-80
2022/05/15 09:54:30;;;;;;;;;1.00;1.00;;;;;24.59;27.73;100668.41;5092307;28;45077;-80
2022/05/15 09:57:15;;;;;;;;;2.00;2.00;;;;;26.09;27.66;100880.25;5092603;28;45244;-80
2022/05/15 09:59:42;;;;;;;;;2.33;2.33;;;;;26.21;27.18;100884.41;5092108;28;45758;-80
2022/05/15 10:02:20;;;;;;;;;2.00;1.67;;;;;26.22;27.16;100881.59;5091643;28;45012;-79
2022/05/15 10:04:48;;;;;;;;;3.33;1.33;;;;;25.95;27.35;100798.56;5089896;28;45476;-80
2022/05/15 10:07:31;;;;;;;;;1.33;1.33;;;;;26.32;27.38;100853.88;5071641;28;45091;-78
2022/05/15 10:10:14;;;;;;;;;4.00;2.33;;;;;26.46;26.69;100862.44;5090621;28;45282;-80
2022/05/15 10:12:43;;;;;;;;;4.00;4.00;;;;;26.32;26.80;100830.13;5089025;28;45270;-79
2022/05/15 10:15:09;;;;;;;;;3.33;3.33;;;;;26.42;26.54;100834.28;5088977;28;45344;-80
2022/05/15 10:17:43;;;;;;;;;2.00;2.00;;;;;26.16;26.65;100780.50;5089380;28;45232;-79
2022/05/15 10:20:25;;;;;;;;;1.00;1.00;;;;;26.66;26.39;100857.16;5083547;28;45675;-79
2022/05/15 10:23:01;;;;;;;;;3.00;1.00;;;;;26.71;25.52;100843.25;5090057;28;45157;-79
2022/05/15 10:25:35;;;;;;;;;0.00;0.00;;;;;26.77;25.15;100847.59;5092850;28;45421;-78
2022/05/15 10:28:24;;;;;;;;;5.00;2.00;;;;;26.36;25.07;100774.25;5092141;28;45291;-78
2022/05/15 10:31:17;;;;;;;;;4.00;4.00;;;;;26.66;25.25;100818.78;5058164;28;45205;-79
2022/05/15 10:33:47;;;;;;;;;3.67;3.67;;;;;26.81;25.69;100819.09;5063428;28;45208;-78
2022/05/15 10:36:50;;;;;;;;;3.00;3.00;;;;;26.99;26.03;100836.66;5091786;28;45016;-80
2022/05/15 10:39:49;;;;;;;;;2.33;2.00;;;;;27.08;26.30;100829.94;5092467;28;45123;-78
2022/05/15 10:42:37;;;;;;;;;3.00;2.00;;;;;27.13;26.62;100822.41;5094303;28;45313;-79
2022/05/15 10:45:20;;;;;;;;;2.33;2.00;;;;;27.13;26.81;100830.63;5074309;28;44968;-78
2022/05/15 10:48:19;;;;;;;;;4.33;3.00;;;;;27.07;26.94;100822.66;5092050;28;45467;-79
2022/05/15 10:50:59;;;;;;;;;2.00;2.00;;;;;26.66;27.13;100774.94;5092750;28;45253;-79
2022/05/15 10:59:20;;;;;;;;;2.00;2.00;;;;;26.81;26.45;100819.09;5089972;28;45038;-77
2022/05/15 11:02:00;;;;;;;;;3.00;2.33;;;;;26.74;26.47;100798.38;5091363;28;45274;-78
2022/05/15 11:04:59;;;;;;;;;6.00;2.33;;;;;26.87;26.64;100815.25;5091287;28;45333;-78
2022/05/15 11:07:45;;;;;;;;;2.00;2.00;;;;;26.91;26.13;100806.84;5093455;28;45154;-78
2022/05/15 11:10:27;;;;;;;;;5.00;3.33;;;;;26.76;26.21;100766.31;5094241;28;45064;-78
2022/05/15 11:13:11;;;;;;;;;4.00;4.00;;;;;26.84;26.45;100783.34;5095728;28;44909;-79
2022/05/15 11:15:58;;;;;;;;;2.67;1.33;;;;;27.09;26.26;100807.00;5093485;28;45270;-79
2022/05/15 11:18:44;;;;;;;;;5.00;5.00;;;;;27.18;25.73;100792.94;5094574;28;44996;-79
2022/05/15 11:21:36;;;;;;;;;4.00;4.00;;;;;27.26;26.24;100801.72;5093074;28;45221;-78
2022/05/15 11:24:26;;;;;;;;;3.67;1.67;;;;;27.14;25.16;100770.22;5092971;28;45259;-78
2022/05/15 11:26:56;;;;;;;;;2.67;2.67;;;;;27.31;24.90;100783.25;5087251;28;46472;-78
2022/05/15 11:29:24;;;;;;;;;4.00;3.00;;;;;27.35;24.98;100782.13;5090597;28;45436;-79
2022/05/15 11:31:54;;;;;;;;;4.33;3.00;;;;;27.42;25.02;100784.63;5092165;28;45101;-78
2022/05/15 11:34:19;;;;;;;;;2.67;2.00;;;;;27.38;24.63;100772.91;5073796;28;45174;-79
2022/05/15 11:36:49;;;;;;;;;1.00;1.00;;;;;27.48;24.77;100788.00;5092106;28;45453;-78
2022/05/15 11:39:14;;;;;;;;;4.67;2.33;;;;;27.51;24.29;100770.53;5091486;28;45271;-79
2022/05/15 11:41:42;;;;;;;;;3.33;3.33;;;;;27.56;24.24;100783.06;5091880;28;44945;-79
2022/05/15 11:44:10;;;;;;;;;7.00;5.00;;;;;27.63;24.34;100774.56;5092573;28;45179;-78
2022/05/15 11:46:45;;;;;;;;;0.00;0.00;;;;;27.66;24.11;100772.56;5094103;28;45476;-78
2022/05/15 11:49:21;;;;;;;;;1.67;1.67;;;;;27.46;24.67;100731.41;5094276;28;45116;-78
2022/05/15 11:52:08;;;;;;;;;3.33;1.67;;;;;27.29;24.12;100685.47;5093081;28;44933;-79
2022/05/15 11:54:37;;;;;;;;;4.00;4.00;;;;;27.77;23.67;100764.75;5092758;28;45541;-78
2022/05/15 11:57:06;;;;;;;;;3.67;3.67;;;;;27.76;24.15;100762.06;5091435;28;45246;-78
2022/05/15 11:59:39;;;;;;;;;2.67;2.67;;;;;27.63;24.44;100752.63;5090956;28;45223;-79
2022/05/15 12:02:29;;;;;;;;;2.00;2.00;;;;;27.63;24.21;100753.50;5088242;28;45265;-78